Time;durP1;ratioP1;P1;durP2;ratioP2;P2;SDS_P1;SDS_P2;PMS_P1;PMS_P2;Temp;Humidity;BMP_temperature;BMP_pressure;BME280_temperature;BME280_humidity;BME280_pressure;Samples;Min_cycle;Max_cycle;Signal;HPM_P1;HPM_P2
2024/01/06 00:00:13;;;;;;;3.97;0.90;;;;;;;-10.44;66.78;101573.84;5047282;28;20069;-77
2024/01/06 00:02:41;;;;;;;3.65;1.10;;;;;;;-10.45;67.13;101570.41;5043978;28;20041;-72
2024/01/06 00:05:08;;;;;;;2.33;0.65;;;;;;;-10.46;66.78;101575.38;5042595;28;20567;-72
2024/01/06 00:07:35;;;;;;;1.55;0.50;;;;;;;-10.49;67.16;101570.09;5041403;28;20769;-73
2024/01/06 00:10:03;;;;;;;2.88;1.02;;;;;;;-10.53;66.60;101572.38;5041935;28;20148;-73
2024/01/06 00:12:30;;;;;;;2.10;0.90;;;;;;;-10.54;67.27;101572.25;5041593;28;20072;-73
2024/01/06 00:14:57;;;;;;;2.05;0.52;;;;;;;-10.56;66.83;101576.31;5043585;28;20076;-74
2024/01/06 00:17:24;;;;;;;3.25;0.70;;;;;;;-10.58;67.19;101580.41;5041760;28;20138;-74
2024/01/06 00:19:52;;;;;;;5.20;0.95;;;;;;;-10.60;66.94;101579.41;5042876;28;20168;-73
2024/01/06 00:22:19;;;;;;;1.98;0.60;;;;;;;-10.62;66.93;101580.91;5040829;28;20084;-77
2024/01/06 00:24:46;;;;;;;1.65;0.50;;;;;;;-10.64;67.17;101585.00;5045347;28;20087;-76
2024/01/06 00:27:13;;;;;;;1.70;0.40;;;;;;;-10.66;67.35;101591.59;5043382;28;20076;-77
2024/01/06 00:29:40;;;;;;;3.58;0.52;;;;;;;-10.68;66.88;101590.56;5041609;28;20088;-76
2024/01/06 00:32:07;;;;;;;4.35;0.90;;;;;;;-10.70;66.83;101597.16;5047138;28;20123;-77
2024/01/06 00:34:34;;;;;;;2.05;0.50;;;;;;;-10.75;67.41;101597.69;5040682;28;20046;-77
2024/01/06 00:37:03;;;;;;;3.00;0.63;;;;;;;-10.76;66.89;101590.91;5043840;28;20073;-76
2024/01/06 00:39:30;;;;;;;2.67;0.75;;;;;;;-10.78;67.14;101600.00;5045163;28;20057;-77
2024/01/06 00:41:57;;;;;;;2.38;0.50;;;;;;;-10.80;67.54;101601.53;5045147;28;20103;-76
2024/01/06 00:44:24;;;;;;;2.22;0.40;;;;;;;-10.79;67.30;101607.44;5044222;28;20143;-76
2024/01/06 00:46:51;;;;;;;2.38;0.52;;;;;;;-10.80;66.67;101606.56;5039676;28;20069;-76
2024/01/06 00:49:18;;;;;;;1.45;0.35;;;;;;;-10.82;67.02;101607.22;5045766;28;20080;-77
2024/01/06 00:51:45;;;;;;;1.02;0.35;;;;;;;-10.84;67.35;101608.78;5040880;28;20080;-77
2024/01/06 00:54:13;;;;;;;0.77;0.28;;;;;;;-10.85;67.10;101612.91;5044561;28;20081;-77
2024/01/06 00:56:41;;;;;;;5.85;0.52;;;;;;;-10.86;67.26;101616.22;5044773;28;20495;-76
2024/01/06 00:59:08;;;;;;;2.03;0.50;;;;;;;-10.86;66.71;101621.28;5046177;28;20045;-76
2024/01/06 01:01:35;;;;;;;1.95;0.60;;;;;;;-10.89;67.32;101613.47;5041022;28;20468;-77
2024/01/06 01:04:02;;;;;;;0.98;0.35;;;;;;;-10.92;67.39;101613.22;5038331;28;20079;-77
2024/01/06 01:06:29;;;;;;;0.73;0.20;;;;;;;-10.90;67.35;101614.25;5041962;28;20135;-77
2024/01/06 01:08:56;;;;;;;1.15;0.50;;;;;;;-10.91;66.98;101619.16;5046088;28;20657;-75
2024/01/06 01:11:25;;;;;;;4.43;0.60;;;;;;;-10.94;67.32;101613.88;5048075;28;20122;-76
2024/01/06 01:13:52;;;;;;;3.55;0.40;;;;;;;-10.94;67.10;101617.28;5041284;28;20376;-73
2024/01/06 01:16:19;;;;;;;2.65;0.40;;;;;;;-10.98;67.24;101621.22;5042284;28;20056;-73
2024/01/06 01:18:46;;;;;;;1.95;0.63;;;;;;;-10.98;67.02;101626.28;5040383;28;20634;-73
2024/01/06 01:21:13;;;;;;;1.88;0.50;;;;;;;-10.98;67.48;101630.44;5040732;28;20476;-72
2024/01/06 01:23:40;;;;;;;1.38;0.55;;;;;;;-10.99;66.88;101628.66;5039221;28;20128;-72
2024/01/06 01:26:07;;;;;;;1.08;0.43;;;;;;;-11.00;67.46;101632.84;5042725;28;20096;-73
2024/01/06 01:28:36;;;;;;;2.40;0.30;;;;;;;-11.01;67.08;101641.19;5041392;28;20587;-73
2024/01/06 01:31:03;;;;;;;0.95;0.40;;;;;;;-11.01;67.42;101640.31;5039068;28;20045;-73
2024/01/06 01:33:30;;;;;;;1.08;0.40;;;;;;;-11.07;66.80;101630.63;5041613;28;20136;-73
2024/01/06 01:35:57;;;;;;;0.50;0.30;;;;;;;-11.04;67.09;101651.06;5038663;28;20088;-72
2024/01/06 01:38:24;;;;;;;1.45;0.40;;;;;;;-11.03;66.88;101652.81;5040896;28;20159;-72
2024/01/06 01:40:51;;;;;;;1.50;0.75;;;;;;;-11.05;66.94;101653.47;5040466;28;20541;-73
2024/01/06 01:43:19;;;;;;;1.40;0.60;;;;;;;-11.06;67.07;101661.81;5040488;28;20080;-73
2024/01/06 01:45:51;;;;;;;1.08;0.50;;;;;;;-11.08;66.91;101665.88;5041621;28;20045;-73
2024/01/06 01:48:19;;;;;;;1.67;0.32;;;;;;;-11.09;66.95;101670.03;5042206;28;20044;-73
2024/01/06 01:50:46;;;;;;;1.05;0.28;;;;;;;-11.10;67.04;101669.91;5038564;28;20423;-73
2024/01/06 01:53:14;;;;;;;0.80;0.40;;;;;;;-11.10;67.51;101674.97;5042210;28;20087;-73
2024/01/06 01:55:43;;;;;;;1.58;0.50;;;;;;;-11.17;67.55;101663.50;5039733;28;20041;-74
2024/01/06 01:58:13;;;;;;;0.73;0.25;;;;;;;-11.15;67.36;101673.75;5039514;28;20468;-73
2024/01/06 02:00:40;;;;;;;0.68;0.30;;;;;;;-11.16;67.01;101670.31;5039579;28;20099;-73
2024/01/06 02:03:17;;;;;;;2.17;0.30;;;;;;;-11.13;66.89;101677.25;5038965;28;20099;-73
2024/01/06 02:05:44;;;;;;;0.45;0.30;;;;;;;-11.14;67.31;101678.03;5041230;28;20114;-73
2024/01/06 02:08:11;;;;;;;1.02;0.47;;;;;;;-11.18;66.86;101680.31;5039541;28;20143;-74
2024/01/06 02:10:38;;;;;;;0.88;0.30;;;;;;;-11.18;66.90;101682.84;5038262;28;20136;-74
2024/01/06 02:13:12;;;;;;;2.22;0.17;;;;;;;-11.19;67.01;101686.13;5041585;28;20044;-73
2024/01/06 02:15:38;;;;;;;0.43;0.20;;;;;;;-11.20;67.02;101686.88;5040372;28;20105;-75
2024/01/06 02:18:06;;;;;;;0.73;0.45;;;;;;;-11.20;66.94;101684.34;5040828;28;20076;-73
2024/01/06 02:20:35;;;;;;;0.40;0.30;;;;;;;-11.20;67.25;101686.88;5039192;28;20084;-74
2024/01/06 02:23:04;;;;;;;1.15;0.40;;;;;;;-11.20;67.30;101688.53;5040139;28;20100;-77
2024/01/06 02:25:35;;;;;;;1.92;0.43;;;;;;;-11.22;67.18;101685.88;5043183;28;20085;-77
2024/01/06 02:28:02;;;;;;;0.47;0.30;;;;;;;-11.19;67.39;101700.38;5045223;28;20515;-77
2024/01/06 02:30:29;;;;;;;1.38;0.50;;;;;;;-11.20;66.99;101699.50;5043116;28;20521;-77
2024/01/06 02:32:56;;;;;;;0.63;0.35;;;;;;;-11.20;67.45;101696.97;5049704;28;20048;-77
2024/01/06 02:35:23;;;;;;;1.08;0.30;;;;;;;-11.21;67.06;101709.50;5045366;28;20084;-77
2024/01/06 02:37:50;;;;;;;1.73;0.40;;;;;;;-11.24;67.81;101699.16;5046956;28;20052;-77
2024/01/06 02:40:18;;;;;;;0.95;0.38;;;;;;;-11.15;67.74;101707.47;5044696;28;20068;-77
2024/01/06 02:42:45;;;;;;;1.08;0.50;;;;;;;-11.16;67.53;101700.63;5043637;28;20077;-78
2024/01/06 02:45:12;;;;;;;1.63;0.25;;;;;;;-11.15;67.23;101701.53;5043509;28;20124;-77
2024/01/06 02:47:39;;;;;;;3.67;0.40;;;;;;;-11.14;67.37;101706.69;5046012;28;20080;-77
2024/01/06 02:50:07;;;;;;;4.47;0.45;;;;;;;-11.19;67.22;101696.25;5041755;28;20124;-77
2024/01/06 02:52:34;;;;;;;0.60;0.30;;;;;;;-11.21;67.81;101687.66;5036359;28;20080;-78
2024/01/06 02:55:01;;;;;;;0.68;0.20;;;;;;;-11.11;67.41;101706.94;5042499;28;20049;-77
2024/01/06 02:57:30;;;;;;;0.68;0.30;;;;;;;-11.11;67.72;101701.88;5043068;28;20380;-76
2024/01/06 02:59:57;;;;;;;1.30;0.50;;;;;;;-11.09;67.19;101696.97;5042507;28;20713;-78
2024/01/06 03:02:24;;;;;;;0.52;0.35;;;;;;;-11.08;67.13;101699.59;5043864;28;20495;-77
2024/01/06 03:04:51;;;;;;;1.40;0.60;;;;;;;-11.09;67.86;101694.44;5041194;28;20077;-77
2024/01/06 03:07:18;;;;;;;0.60;0.20;;;;;;;-11.05;67.30;101693.91;5045302;28;20061;-78
2024/01/06 03:09:45;;;;;;;0.80;0.32;;;;;;;-11.08;67.84;101694.53;5043295;28;20107;-78
2024/01/06 03:12:12;;;;;;;3.03;0.30;;;;;;;-11.03;67.65;101695.78;5041963;28;20134;-77
2024/01/06 03:14:40;;;;;;;1.05;0.32;;;;;;;-11.02;67.71;101695.00;5041716;28;20045;-77
2024/01/06 03:17:10;;;;;;;0.88;0.35;;;;;;;-10.98;67.38;101711.31;5041309;28;20049;-77
2024/01/06 03:19:37;;;;;;;1.40;0.30;;;;;;;-10.97;67.25;101708.03;5038097;28;21194;-77
2024/01/06 03:22:04;;;;;;;0.55;0.30;;;;;;;-10.93;67.85;101706.63;5046150;28;20120;-77
2024/01/06 03:24:31;;;;;;;0.82;0.30;;;;;;;-10.93;67.60;101702.47;5045673;28;20131;-77
2024/01/06 03:26:58;;;;;;;1.45;0.40;;;;;;;-10.90;68.13;101704.31;5040810;28;20119;-77
2024/01/06 03:29:25;;;;;;;0.80;0.50;;;;;;;-10.87;67.64;101713.06;5040098;28;20083;-76
2024/01/06 03:31:54;;;;;;;1.85;0.40;;;;;;;-10.93;67.68;101697.41;5042932;28;20075;-77
2024/01/06 03:34:21;;;;;;;0.80;0.40;;;;;;;-10.83;67.67;101721.75;5039250;28;20084;-71
2024/01/06 03:36:46;;;;;;;0.57;0.30;;;;;;;-10.81;67.93;101721.09;5040642;28;20088;-70
2024/01/06 03:39:13;;;;;;;1.70;0.50;;;;;;;-10.79;68.08;101724.66;5044633;28;20083;-70
2024/01/06 03:41:40;;;;;;;0.88;0.40;;;;;;;-10.77;67.66;101727.28;5045267;28;20052;-70
2024/01/06 03:44:07;;;;;;;2.55;0.50;;;;;;;-10.75;67.53;101731.69;5042541;28;20092;-70
2024/01/06 03:46:36;;;;;;;1.17;0.30;;;;;;;-10.72;67.85;101738.66;5043580;28;20108;-70
2024/01/06 03:49:04;;;;;;;2.05;0.50;;;;;;;-10.71;67.57;101737.00;5043757;28;20077;-70
2024/01/06 03:51:31;;;;;;;0.52;0.30;;;;;;;-10.67;68.07;101742.41;5041556;28;20124;-70
2024/01/06 03:53:58;;;;;;;1.65;0.50;;;;;;;-10.66;67.61;101744.19;5042536;28;20506;-76
2024/01/06 03:56:25;;;;;;;1.67;0.40;;;;;;;-10.63;68.18;101748.59;5046770;28;20045;-76
2024/01/06 03:58:52;;;;;;;0.82;0.40;;;;;;;-10.60;68.03;101749.72;5044959;28;20046;-76
2024/01/06 04:01:19;;;;;;;1.60;0.50;;;;;;;-10.57;67.68;101754.13;5047614;28;20049;-76
2024/01/06 04:03:46;;;;;;;0.68;0.32;;;;;;;-10.56;67.81;101745.75;5040365;28;20072;-76
2024/01/06 04:06:14;;;;;;;1.25;0.30;;;;;;;-10.52;68.26;101750.31;5042587;28;20083;-76
2024/01/06 04:08:41;;;;;;;1.75;0.40;;;;;;;-10.51;68.00;101752.06;5045579;28;20483;-76
2024/01/06 04:11:08;;;;;;;0.85;0.30;;;;;;;-10.47;67.82;101750.69;5042202;28;20060;-75
2024/01/06 04:13:35;;;;;;;1.42;0.47;;;;;;;-10.46;67.75;101739.78;5046350;28;20106;-76
2024/01/06 04:16:02;;;;;;;1.23;0.40;;;;;;;-10.44;67.96;101754.31;5039276;28;20049;-76
2024/01/06 04:18:29;;;;;;;1.45;0.20;;;;;;;-10.42;67.46;101741.78;5042786;28;20069;-76
2024/01/06 04:20:56;;;;;;;0.43;0.20;;;;;;;-10.40;67.71;101747.84;5017420;28;20056;-76
2024/01/06 04:23:23;;;;;;;1.58;0.40;;;;;;;-10.38;67.96;101742.13;5045654;28;20495;-76
2024/01/06 04:25:51;;;;;;;0.50;0.25;;;;;;;-10.37;68.31;101743.00;5042555;28;20053;-76
2024/01/06 04:28:18;;;;;;;0.77;0.30;;;;;;;-10.36;68.34;101745.69;5045560;28;20861;-75
2024/01/06 04:30:45;;;;;;;0.55;0.20;;;;;;;-10.34;68.17;101738.19;5045648;28;20098;-76
2024/01/06 04:33:12;;;;;;;1.40;0.50;;;;;;;-10.35;68.22;101737.31;5046681;28;20384;-75
2024/01/06 04:35:39;;;;;;;1.58;0.45;;;;;;;-10.34;67.64;101751.72;5044844;28;20045;-76
2024/01/06 04:38:06;;;;;;;0.75;0.40;;;;;;;-10.34;68.30;101756.78;5039179;28;20077;-76
2024/01/06 04:40:34;;;;;;;1.05;0.52;;;;;;;-10.33;67.51;101760.22;5045729;28;20648;-76
2024/01/06 04:43:01;;;;;;;0.85;0.30;;;;;;;-10.33;68.11;101763.63;5043507;28;20108;-76
2024/01/06 04:45:28;;;;;;;0.95;0.35;;;;;;;-10.33;68.17;101761.09;5041339;28;20175;-77
2024/01/06 04:47:55;;;;;;;2.22;0.30;;;;;;;-10.33;68.24;101756.03;5042913;28;20127;-76
2024/01/06 04:50:22;;;;;;;0.40;0.22;;;;;;;-10.33;67.84;101763.63;5045668;28;20084;-77
2024/01/06 04:52:49;;;;;;;1.45;0.32;;;;;;;-10.32;68.33;101767.03;5039165;28;20467;-77
2024/01/06 04:55:16;;;;;;;3.35;0.30;;;;;;;-10.32;68.29;101767.03;5044810;28;20077;-76
2024/01/06 04:57:44;;;;;;;0.65;0.30;;;;;;;-10.32;67.54;101759.44;5040056;28;20076;-76
2024/01/06 05:00:13;;;;;;;1.10;0.30;;;;;;;-10.34;67.50;101774.47;5039994;28;20128;-77
2024/01/06 05:02:40;;;;;;;0.65;0.20;;;;;;;-10.33;68.08;101778.81;5040064;28;20459;-77
2024/01/06 05:05:07;;;;;;;0.45;0.30;;;;;;;-10.34;68.22;101776.13;5043745;28;20548;-76
2024/01/06 05:07:34;;;;;;;1.17;0.22;;;;;;;-10.34;67.50;101779.53;5038511;28;20154;-76
2024/01/06 05:10:02;;;;;;;1.27;0.38;;;;;;;-10.34;67.33;101779.53;5042078;28;20627;-76
2024/01/06 05:12:29;;;;;;;0.63;0.40;;;;;;;-10.34;67.83;101781.19;5040698;28;20049;-76
2024/01/06 05:14:57;;;;;;;4.40;0.40;;;;;;;-10.34;67.87;101787.13;5041590;28;20045;-76
2024/01/06 05:17:24;;;;;;;1.73;0.30;;;;;;;-10.34;67.47;101787.13;5043083;28;20080;-77
2024/01/06 05:19:51;;;;;;;1.60;0.28;;;;;;;-10.38;68.13;101785.16;5043950;28;20458;-76
2024/01/06 05:22:18;;;;;;;1.15;0.40;;;;;;;-10.34;67.33;101786.25;5041462;28;20089;-76
2024/01/06 05:24:46;;;;;;;1.55;0.40;;;;;;;-10.35;67.51;101787.91;5038227;28;20056;-77
2024/01/06 05:27:13;;;;;;;1.27;0.20;;;;;;;-10.35;67.65;101792.97;5044729;28;20133;-77
2024/01/06 05:29:40;;;;;;;1.08;0.30;;;;;;;-10.36;67.69;101797.91;5045532;28;20080;-77
2024/01/06 05:32:08;;;;;;;0.88;0.50;;;;;;;-10.36;67.47;101803.88;5046655;28;20068;-76
2024/01/06 05:34:35;;;;;;;0.40;0.20;;;;;;;-10.37;68.10;101807.13;5044276;28;20103;-76
2024/01/06 05:37:02;;;;;;;0.50;0.20;;;;;;;-10.37;67.86;101807.13;5041361;28;20095;-76
2024/01/06 05:39:29;;;;;;;0.75;0.30;;;;;;;-10.37;67.49;101814.72;5038795;28;20953;-76
2024/01/06 05:41:56;;;;;;;2.47;0.30;;;;;;;-10.36;68.10;101828.25;5045660;28;20407;-76
2024/01/06 05:44:23;;;;;;;0.82;0.28;;;;;;;-10.37;68.25;101834.97;5039576;28;20080;-76
2024/01/06 05:46:51;;;;;;;1.00;0.22;;;;;;;-10.38;67.33;101833.22;5045675;28;20088;-77
2024/01/06 05:49:19;;;;;;;0.77;0.30;;;;;;;-10.37;67.90;101834.97;5043950;28;20053;-76
2024/01/06 05:51:46;;;;;;;0.50;0.30;;;;;;;-10.37;68.01;101836.63;5028834;28;20082;-76
2024/01/06 05:54:13;;;;;;;0.85;0.20;;;;;;;-10.38;67.83;101840.81;5040723;28;20077;-71
2024/01/06 05:56:40;;;;;;;0.73;0.30;;;;;;;-10.40;67.42;101837.25;5038512;28;20506;-70
2024/01/06 05:59:07;;;;;;;1.08;0.20;;;;;;;-10.38;67.67;101850.94;5036802;28;20079;-71
2024/01/06 06:01:34;;;;;;;0.68;0.20;;;;;;;-10.37;67.36;101854.34;5038409;28;20045;-71
2024/01/06 06:04:01;;;;;;;0.82;0.38;;;;;;;-10.40;67.80;101847.38;5039031;28;20469;-71
2024/01/06 06:06:29;;;;;;;2.08;0.25;;;;;;;-10.37;67.76;101859.38;5040094;28;20088;-72
2024/01/06 06:08:57;;;;;;;1.95;0.30;;;;;;;-10.37;67.78;101862.78;5039275;28;20057;-71
2024/01/06 06:11:24;;;;;;;0.85;0.20;;;;;;;-10.36;67.32;101869.66;5039420;28;20492;-70
2024/01/06 06:13:51;;;;;;;0.77;0.50;;;;;;;-10.36;67.62;101874.72;5037811;28;20080;-71
2024/01/06 06:16:18;;;;;;;3.28;0.40;;;;;;;-10.35;68.11;101881.53;5037409;28;20084;-71
2024/01/06 06:18:45;;;;;;;0.98;0.30;;;;;;;-10.34;68.19;101875.69;5037526;28;20056;-70
2024/01/06 06:21:11;;;;;;;0.60;0.30;;;;;;;-10.34;68.20;101873.16;5038792;28;20053;-70
2024/01/06 06:23:40;;;;;;;0.68;0.30;;;;;;;-10.34;68.14;101873.16;5039311;28;20493;-71
2024/01/06 06:26:07;;;;;;;0.88;0.30;;;;;;;-10.33;68.11;101877.47;5040939;28;20124;-70
2024/01/06 06:28:35;;;;;;;1.30;0.40;;;;;;;-10.33;68.34;101890.13;5040225;28;20045;-70
2024/01/06 06:31:02;;;;;;;3.17;0.50;;;;;;;-10.32;68.32;101888.47;5039884;28;20052;-71
2024/01/06 06:33:29;;;;;;;0.95;0.30;;;;;;;-10.32;68.19;101885.94;5036672;28;20068;-71
2024/01/06 06:35:56;;;;;;;0.90;0.32;;;;;;;-10.32;67.65;101891.88;5037210;28;20049;-72
2024/01/06 06:38:23;;;;;;;1.67;0.40;;;;;;;-10.30;67.94;101889.50;5038574;28;20045;-71
2024/01/06 06:40:51;;;;;;;0.65;0.22;;;;;;;-10.32;67.59;101899.47;5043385;28;20487;-70
2024/01/06 06:43:18;;;;;;;1.42;0.20;;;;;;;-10.40;67.57;101882.78;5038145;28;20092;-71
2024/01/06 06:45:45;;;;;;;2.17;0.40;;;;;;;-10.32;67.72;101902.00;5037423;28;20131;-71
2024/01/06 06:48:12;;;;;;;0.75;0.22;;;;;;;-10.33;67.52;101905.31;5035390;28;20133;-71
2024/01/06 06:50:40;;;;;;;0.80;0.40;;;;;;;-10.33;67.60;101902.78;5039426;28;20080;-70
2024/01/06 06:53:07;;;;;;;0.80;0.38;;;;;;;-10.32;68.18;101908.72;5038118;28;20419;-70
2024/01/06 06:55:34;;;;;;;1.00;0.43;;;;;;;-10.33;67.57;101907.84;5039894;28;20044;-71
2024/01/06 06:58:03;;;;;;;2.35;0.50;;;;;;;-10.32;67.61;101916.31;5036232;28;20065;-71
2024/01/06 07:00:30;;;;;;;1.05;0.60;;;;;;;-10.35;67.61;101918.59;5036711;28;20057;-70
2024/01/06 07:02:57;;;;;;;1.25;0.40;;;;;;;-10.34;68.11;101916.16;5038860;28;20053;-78
2024/01/06 07:05:24;;;;;;;1.00;0.45;;;;;;;-10.34;67.75;101923.75;5042626;28;20167;-78
2024/01/06 07:07:51;;;;;;;0.50;0.20;;;;;;;-10.35;67.71;101927.06;5045375;28;20124;-78
2024/01/06 07:10:18;;;;;;;1.30;0.40;;;;;;;-10.34;68.06;101935.53;5044545;28;20132;-78
2024/01/06 07:12:45;;;;;;;0.88;0.28;;;;;;;-10.34;68.11;101940.59;5047868;28;20102;-77
2024/01/06 07:15:13;;;;;;;1.20;0.47;;;;;;;-10.34;67.54;101949.06;5050308;28;20073;-77
2024/01/06 07:17:40;;;;;;;0.88;0.40;;;;;;;-10.36;67.49;101943.00;5044048;28;20081;-78
2024/01/06 07:20:09;;;;;;;0.65;0.25;;;;;;;-10.35;68.26;101937.19;5046356;28;20397;-77
2024/01/06 07:22:37;;;;;;;0.77;0.30;;;;;;;-10.34;67.58;101946.53;5047828;28;20045;-77
2024/01/06 07:25:04;;;;;;;1.83;0.65;;;;;;;-10.34;67.92;101941.47;5048456;28;20124;-76
2024/01/06 07:27:31;;;;;;;1.08;0.40;;;;;;;-10.34;67.66;101938.06;5045499;28;20052;-77
2024/01/06 07:29:58;;;;;;;2.05;0.50;;;;;;;-10.33;67.96;101949.97;5044203;28;20101;-77
2024/01/06 07:32:26;;;;;;;1.48;0.50;;;;;;;-10.34;67.60;101938.94;5041432;28;20085;-77
2024/01/06 07:34:54;;;;;;;1.02;0.47;;;;;;;-10.34;67.72;101954.13;5045076;28;20056;-77
2024/01/06 07:37:20;;;;;;;1.52;0.30;;;;;;;-10.34;67.97;101955.78;5044191;28;20081;-77
2024/01/06 07:39:47;;;;;;;1.50;0.30;;;;;;;-10.34;68.19;101963.38;5044045;28;20085;-76
2024/01/06 07:42:14;;;;;;;0.65;0.38;;;;;;;-10.33;67.92;101962.63;5043726;28;20572;-76
2024/01/06 07:44:41;;;;;;;0.35;0.30;;;;;;;-10.34;67.77;101961.72;5048154;28;20080;-76
2024/01/06 07:47:08;;;;;;;1.30;0.45;;;;;;;-10.36;67.77;101953.13;5047296;28;20041;-76
2024/01/06 07:49:37;;;;;;;0.90;0.38;;;;;;;-10.35;67.98;101959.94;5039358;28;20073;-76
2024/01/06 07:52:04;;;;;;;2.05;0.40;;;;;;;-10.36;67.94;101958.19;5044557;28;20503;-76
2024/01/06 07:54:31;;;;;;;2.80;0.57;;;;;;;-10.36;67.81;101958.19;5046578;28;20041;-77
2024/01/06 07:56:59;;;;;;;2.08;0.52;;;;;;;-10.37;68.29;101961.47;5044250;28;20041;-76
2024/01/06 07:59:26;;;;;;;1.50;0.43;;;;;;;-10.39;67.86;101959.56;5042556;28;20073;-76
2024/01/06 08:01:53;;;;;;;2.30;0.47;;;;;;;-10.37;67.82;101968.19;5044244;28;20124;-76
2024/01/06 08:04:20;;;;;;;1.77;0.50;;;;;;;-10.36;68.17;101975.00;5044544;28;20481;-76
2024/01/06 08:06:48;;;;;;;1.35;0.40;;;;;;;-10.37;67.60;101966.53;5041917;28;20130;-80
2024/01/06 08:09:15;;;;;;;1.15;0.40;;;;;;;-10.36;68.32;101970.84;5041517;28;20135;-78
2024/01/06 08:11:45;;;;;;;2.40;0.60;;;;;;;-10.36;67.71;101975.91;5046360;28;20045;-77
2024/01/06 08:14:12;;;;;;;5.03;0.77;;;;;;;-10.37;67.67;101968.19;5043716;28;20060;-72
2024/01/06 08:16:39;;;;;;;2.60;0.50;;;;;;;-10.36;68.12;101977.53;5041599;28;20041;-71
2024/01/06 08:19:06;;;;;;;1.52;0.40;;;;;;;-10.36;67.79;101982.59;5042235;28;20491;-70
2024/01/06 08:21:34;;;;;;;0.80;0.40;;;;;;;-10.37;67.48;101991.81;5044058;28;20053;-71
2024/01/06 08:24:02;;;;;;;0.93;0.47;;;;;;;-10.36;67.87;101993.63;5039771;28;20049;-71
2024/01/06 08:26:30;;;;;;;0.70;0.45;;;;;;;-10.37;67.79;101998.53;5041157;28;20160;-70
2024/01/06 08:28:56;;;;;;;3.33;0.60;;;;;;;-10.36;68.28;102008.78;5040556;28;20091;-71
2024/01/06 08:31:24;;;;;;;2.75;0.60;;;;;;;-10.36;68.03;102011.31;5041328;28;20454;-71
2024/01/06 08:33:50;;;;;;;1.92;0.52;;;;;;;-10.35;67.86;102019.78;5039861;28;20063;-71
2024/01/06 08:36:18;;;;;;;2.53;0.60;;;;;;;-10.35;68.21;102013.09;5039994;28;20508;-71
2024/01/06 08:38:45;;;;;;;1.63;0.60;;;;;;;-10.35;68.20;102013.09;5040239;28;20504;-71
2024/01/06 08:41:15;;;;;;;3.28;0.55;;;;;;;-10.35;67.84;102020.69;5042437;28;20128;-70
2024/01/06 08:43:45;;;;;;;1.02;0.30;;;;;;;-10.34;67.66;102030.03;5041221;28;20041;-71
2024/01/06 08:46:12;;;;;;;2.75;0.88;;;;;;;-10.32;68.17;102036.09;5040623;28;20477;-71
2024/01/06 08:48:39;;;;;;;1.77;0.63;;;;;;;-10.32;68.06;102038.63;5043277;28;20168;-72
2024/01/06 08:51:06;;;;;;;1.85;0.50;;;;;;;-10.30;68.24;102047.25;5039971;28;20789;-71
2024/01/06 08:53:33;;;;;;;4.85;0.95;;;;;;;-10.29;67.90;102051.53;5041241;28;20053;-71
2024/01/06 08:56:00;;;;;;;2.72;0.60;;;;;;;-10.26;67.69;102057.63;5041375;28;20080;-71
2024/01/06 08:58:29;;;;;;;1.15;0.52;;;;;;;-10.26;67.81;102052.56;5039736;28;20091;-70
2024/01/06 09:00:56;;;;;;;1.15;0.40;;;;;;;-10.22;68.50;102062.16;5040371;28;20081;-71
2024/01/06 09:03:25;;;;;;;1.70;0.65;;;;;;;-10.21;68.38;102063.94;5040478;28;20080;-71
2024/01/06 09:05:53;;;;;;;1.23;0.40;;;;;;;-10.21;67.81;102069.00;5040768;28;20131;-72
2024/01/06 09:08:20;;;;;;;2.17;0.70;;;;;;;-10.18;68.27;102069.25;5042648;28;20064;-71
2024/01/06 09:10:47;;;;;;;1.95;0.50;;;;;;;-10.16;68.43;102076.22;5039852;28;20091;-71
2024/01/06 09:13:14;;;;;;;1.40;0.57;;;;;;;-10.13;68.39;102073.94;5040178;28;20056;-71
2024/01/06 09:15:43;;;;;;;2.95;0.68;;;;;;;-10.12;68.33;102075.69;5040711;28;20076;-71
2024/01/06 09:18:10;;;;;;;3.55;0.80;;;;;;;-10.08;67.98;102071.75;5041481;28;20710;-70
2024/01/06 09:20:38;;;;;;;6.50;1.20;;;;;;;-10.06;67.88;102078.72;5040207;28;20148;-71
2024/01/06 09:23:05;;;;;;;4.90;1.33;;;;;;;-10.02;68.13;102078.94;5039871;28;20040;-77
2024/01/06 09:25:32;;;;;;;2.95;0.77;;;;;;;-10.05;68.12;102077.06;5040168;28;20080;-77
2024/01/06 09:27:59;;;;;;;3.30;0.73;;;;;;;-9.97;68.29;102097.94;5044385;28;20519;-77
2024/01/06 09:30:27;;;;;;;1.67;0.70;;;;;;;-9.96;68.13;102095.56;5044779;28;20139;-78
2024/01/06 09:32:55;;;;;;;1.75;0.75;;;;;;;-9.92;68.49;102104.28;5044896;28;20049;-77
2024/01/06 09:35:23;;;;;;;3.33;0.68;;;;;;;-9.90;68.50;102107.81;5039402;28;20492;-78
2024/01/06 09:37:49;;;;;;;2.53;1.00;;;;;;;-9.87;68.47;102111.47;5040582;28;20057;-78
2024/01/06 09:40:22;;;;;;;2.50;1.20;;;;;;;-9.83;67.96;102117.66;5047644;28;20071;-77
2024/01/06 09:42:49;;;;;;;4.57;1.38;;;;;;;-9.80;67.87;102122.97;5042524;28;20123;-77
2024/01/06 09:45:17;;;;;;;5.47;1.35;;;;;;;-9.77;68.54;102108.03;5043825;28;20079;-77
2024/01/06 09:47:49;;;;;;;3.08;0.95;;;;;;;-9.74;68.42;102122.59;5041431;28;20083;-77
2024/01/06 09:50:19;;;;;;;5.07;1.27;;;;;;;-9.72;68.53;102116.00;5048661;28;20624;-77
2024/01/06 09:52:53;;;;;;;5.65;1.05;;;;;;;-9.68;68.58;102123.06;5040307;28;20091;-77
2024/01/06 09:55:26;;;;;;;1.23;0.65;;;;;;;-9.65;68.30;102116.63;5040817;28;20053;-76
2024/01/06 09:57:53;;;;;;;4.28;1.38;;;;;;;-9.62;68.21;102118.53;5040899;28;20052;-77
2024/01/06 10:00:21;;;;;;;2.35;0.93;;;;;;;-9.61;67.72;102120.28;5040982;28;20068;-76
2024/01/06 10:02:48;;;;;;;1.52;0.60;;;;;;;-9.59;68.30;102123.84;5042254;28;20120;-77
2024/01/06 10:05:18;;;;;;;2.90;0.70;;;;;;;-9.57;67.87;102117.22;5043243;28;20467;-77
2024/01/06 10:07:45;;;;;;;1.80;1.05;;;;;;;-9.58;68.13;102114.59;5038128;28;20563;-76
2024/01/06 10:10:12;;;;;;;4.00;1.20;;;;;;;-9.54;68.09;102121.66;5046358;28;20076;-77
2024/01/06 10:12:40;;;;;;;2.40;0.82;;;;;;;-9.52;67.88;102125.19;5041436;28;20125;-77
2024/01/06 10:15:08;;;;;;;4.82;1.08;;;;;;;-9.51;68.49;102122.81;5044276;28;20040;-77
2024/01/06 10:17:38;;;;;;;3.90;1.10;;;;;;;-9.51;68.47;102127.88;5038111;28;20083;-78
2024/01/06 10:20:09;;;;;;;3.40;0.95;;;;;;;-9.50;67.96;102129.63;5045018;28;20491;-76
2024/01/06 10:22:42;;;;;;;3.88;0.60;;;;;;;-9.47;68.40;102139.13;5041211;28;20412;-76
2024/01/06 10:25:10;;;;;;;1.95;0.65;;;;;;;-9.47;67.92;102140.00;5041305;28;20064;-76
2024/01/06 10:27:39;;;;;;;1.15;0.45;;;;;;;-9.45;67.90;102151.16;5046553;28;20045;-77
2024/01/06 10:30:08;;;;;;;4.25;0.60;;;;;;;-9.42;67.75;102153.06;5043315;28;20056;-77
2024/01/06 10:32:36;;;;;;;4.72;0.90;;;;;;;-9.42;67.47;102156.47;5042191;28;20072;-77
2024/01/06 10:35:03;;;;;;;1.40;0.50;;;;;;;-9.49;68.07;102146.59;5040768;28;20045;-77
2024/01/06 10:37:31;;;;;;;4.28;0.85;;;;;;;-9.40;68.06;102162.53;5043573;28;20049;-77
2024/01/06 10:40:14;;;;;;;3.13;0.82;;;;;;;-9.38;67.81;102171.13;5043603;28;20045;-77
2024/01/06 10:42:42;;;;;;;2.70;1.08;;;;;;;-9.35;67.87;102167.06;5038823;28;20073;-77
2024/01/06 10:45:10;;;;;;;2.22;0.75;;;;;;;-9.34;67.92;102171.34;5046672;28;20773;-77
2024/01/06 10:47:37;;;;;;;2.50;0.60;;;;;;;-9.33;68.40;102173.16;5047295;28;20515;-77
2024/01/06 10:50:06;;;;;;;1.67;0.68;;;;;;;-9.31;67.96;102176.66;5045214;28;20073;-77
2024/01/06 10:52:34;;;;;;;5.95;0.90;;;;;;;-9.29;67.88;102180.22;5048496;28;20523;-77
2024/01/06 10:55:03;;;;;;;4.28;1.10;;;;;;;-9.28;67.61;102181.97;5047587;28;20125;-77
2024/01/06 10:57:32;;;;;;;2.72;0.68;;;;;;;-9.27;68.28;102179.59;5047948;28;20083;-77
2024/01/06 11:00:00;;;;;;;1.95;0.60;;;;;;;-9.27;68.20;102176.16;5045510;28;20049;-77
2024/01/06 11:02:28;;;;;;;1.58;0.70;;;;;;;-9.25;67.98;102172.09;5046525;28;20077;-78
2024/01/06 11:04:55;;;;;;;5.78;1.08;;;;;;;-9.24;68.02;102179.81;5042725;28;20068;-77
2024/01/06 11:07:26;;;;;;;3.13;1.00;;;;;;;-9.22;67.39;102174.88;5048171;28;20093;-76
2024/01/06 11:09:57;;;;;;;4.88;1.58;;;;;;;-9.23;67.45;102175.63;5041280;28;20069;-76
2024/01/06 11:12:26;;;;;;;4.78;1.17;;;;;;;-9.22;67.58;102180.84;5044423;28;20080;-77
2024/01/06 11:14:55;;;;;;;2.97;1.15;;;;;;;-9.21;67.43;102184.25;5042782;28;20392;-78
2024/01/06 11:17:58;;;;;;;3.92;1.00;;;;;;;-9.20;68.32;102191.09;5046491;28;20043;-76
2024/01/06 11:20:26;;;;;;;3.00;1.00;;;;;;;-9.19;67.75;102186.16;5050972;28;20150;-77